Latest Weather Observations for Mangalore

IDV60801

Issued at 7:31 pm EST Tuesday 21 April 2015 (issued every 30 minutes, with the page automatically refreshed every 10 minutes)

About weather observations | Map of weather stations | Latest weather observations for VIC | Other Formats
Station Details ID: 088109 Name: MANGALORE AIRPORT Lat: -36.89 Lon: 145.19 Height: 140.8 m
Data from the previous 72 hours. | See also: Recent months at Mangalore
Date/Time
EST
Temp
°C
App
Temp
°C
Dew
Point
Rel
Hum
%
Delta-T
°C
Wind Press
QNH
hPa
Press
MSL
hPa
Rain
since 9 am
mm
Dir
 
Spd
km/h
Gust
km/h
Spd
kts
Gust
kts
21/07:30pm 13.5 8.5 3.8 52 4.4 S 19 28 10 15 1027.3 1027.2 0.0
21/07:00pm 13.7 8.5 3.5 50 4.6 S 20 33 11 18 1027.2 1027.1 0.0
21/06:30pm 14.2 8.2 3.1 47 5.0 S 24 39 13 21 1027.0 1026.9 0.0
21/06:00pm 14.6 9.4 2.5 44 5.4 S 19 28 10 15 1027.0 1026.9 0.0
21/05:30pm 15.7 9.8 1.8 39 6.2 SSE 22 32 12 17 1026.8 1026.7 0.0
21/05:00pm 16.4 9.7 1.3 36 6.6 SSE 26 35 14 19 1026.9 1026.8 0.0
21/04:30pm 17.0 9.5 1.4 35 7.0 SSE 30 41 16 22 1026.6 1026.5 0.0
21/04:00pm 17.4 10.3 1.4 34 7.1 SSE 28 37 15 20 1026.9 1026.8 0.0
21/03:30pm 18.3 12.3 1.3 32 7.7 SSE 22 32 12 17 1027.0 1026.9 0.0
21/03:00pm 18.4 12.0 1.0 31 7.7 SSE 24 35 13 19 1027.1 1027.0 0.0
21/02:30pm 18.7 12.0 1.2 31 7.9 SSE 26 35 14 19 1027.1 1027.0 0.0
21/02:00pm 17.7 11.0 1.2 33 7.3 SSE 26 35 14 19 1027.1 1027.0 0.0
21/01:30pm 18.0 10.9 1.1 32 7.6 SSE 28 37 15 20 1027.5 1027.4 0.0
21/01:00pm 17.7 10.9 0.8 32 7.4 SSE 26 33 14 18 1028.0 1027.9 0.0
21/12:30pm 17.4 9.9 1.0 33 7.3 SSE 30 37 16 20 1028.5 1028.4 0.0
21/12:00pm 17.0 9.9 1.4 35 6.9 SSE 28 39 15 21 1029.1 1029.0 0.0
21/11:30am 17.1 10.5 2.3 37 6.7 SSE 26 35 14 19 1029.5 1029.4 0.0
21/11:00am 15.9 8.8 1.6 38 6.3 SSE 28 37 15 20 1030.0 1029.9 0.0
21/10:30am 15.3 8.7 2.1 41 5.9 SSE 26 35 14 19 1030.2 1030.1 0.0
21/10:00am 14.7 8.1 2.3 43 5.5 SSE 26 39 14 21 1030.4 1030.3 0.0
21/09:30am 13.8 6.3 3.6 50 4.6 SSE 32 43 17 23 1030.4 1030.3 0.0
21/09:00am 12.9 6.1 3.3 52 4.3 SSE 28 41 15 22 1030.7 1030.6 0.0
21/08:47am 12.0 5.0 1.9 50 4.3 S 28 46 15 25 1030.5 1030.4 0.0
21/08:30am 11.5 5.4 0.6 47 4.5 SSE 22 30 12 16 1031.0 1030.9 0.0
21/08:00am 10.7 5.1 0.2 48 4.3 S 19 28 10 15 1030.9 1030.8 0.0
21/07:30am 9.5 5.9 0.4 53 3.7 SE 9 17 5 9 1031.4 1031.3 0.0
21/07:00am 9.5 3.4 0.4 53 3.7 SE 22 30 12 16 1030.6 1030.5 0.0
21/06:30am 8.7 1.9 0.7 57 3.3 SSE 26 35 14 19 1030.2 1030.1 0.0
21/06:00am 8.8 2.8 1.2 59 3.1 SSE 22 32 12 17 1030.3 1030.2 0.0
21/05:30am 8.1 2.7 1.3 62 2.8 SSE 19 24 10 13 1030.4 1030.3 0.0
21/05:00am 9.1 2.0 1.3 58 3.2 S 28 35 15 19 1030.0 1029.9 0.0
21/04:30am 8.9 2.6 1.3 59 3.1 S 24 39 13 21 1030.0 1029.9 0.0
21/04:00am 8.5 2.6 1.9 63 2.7 S 22 30 12 16 1030.2 1030.1 0.0
21/03:30am 7.8 4.8 2.3 68 2.3 SSE 7 13 4 7 1030.4 1030.3 0.0
21/03:00am 8.1 4.0 2.4 67 2.4 S 13 20 7 11 1031.2 1031.1 0.0
21/02:30am 8.3 5.4 2.5 67 2.4 SW 7 13 4 7 1031.8 1031.7 0.0
21/02:00am 7.3 3.9 1.8 68 2.2 SSE 9 11 5 6 1032.1 1032.0 0.0
21/01:30am 9.2 4.4 2.5 63 2.9 SSE 17 32 9 17 1032.3 1032.2 0.0
21/01:00am 9.8 2.9 2.6 61 3.1 SSE 28 43 15 23 1031.9 1031.8 0.0
21/12:30am 9.5 3.0 2.6 62 3.0 SSE 26 35 14 19 1031.5 1031.4 0.0
21/12:00am 10.0 3.1 2.6 60 3.2 SSE 28 41 15 22 1031.7 1031.6 0.0
 
Date/Time
EST
Temp
°C
App
Temp
°C
Dew
Point
Rel
Hum
%
Delta-T
°C
Wind Press
QNH
hPa
Press
MSL
hPa
Rain
since 9 am
mm
Dir
 
Spd
km/h
Gust
km/h
Spd
kts
Gust
kts
20/11:30pm 9.8 4.0 2.4 60 3.2 S 22 28 12 15 1031.9 1031.8 0.0
20/11:00pm 10.0 4.6 2.4 59 3.2 S 20 26 11 14 1032.2 1032.1 0.0
20/10:30pm 10.0 5.2 2.6 60 3.2 S 17 22 9 12 1032.5 1032.5 0.0
20/10:00pm 10.2 4.1 2.8 60 3.2 S 24 32 13 17 1032.7 1032.7 0.0
20/09:30pm 10.3 4.3 3.1 61 3.1 S 24 32 13 17 1032.9 1032.9 0.0
20/09:00pm 10.5 3.3 3.1 60 3.2 SSE 30 37 16 20 1032.8 1032.8 0.0
20/08:30pm 11.1 4.7 3.2 58 3.5 S 26 39 14 21 1032.8 1032.8 0.0
20/08:00pm 11.1 5.1 3.2 58 3.4 S 24 33 13 18 1032.6 1032.6 0.0
20/07:30pm 11.6 5.1 2.6 54 3.9 S 26 35 14 19 1032.4 1032.4 0.0
20/07:00pm 11.9 5.9 1.0 47 4.6 S 22 30 12 16 1032.1 1032.0 0.0
20/06:30pm 12.5 6.5 0.9 45 4.9 S 22 28 12 15 1032.1 1032.0 0.0
20/06:00pm 13.0 7.3 0.7 43 5.2 S 20 30 11 16 1031.9 1031.8 0.0
20/05:30pm 13.8 7.0 0.8 41 5.6 S 26 35 14 19 1031.5 1031.4 0.0
20/05:00pm 14.5 6.4 0.7 39 5.9 SSE 33 48 18 26 1031.4 1031.3 0.0
20/04:30pm 15.0 6.1 0.8 38 6.1 S 37 48 20 26 1031.1 1031.0 0.0
20/04:00pm 15.5 7.1 1.3 38 6.2 S 35 48 19 26 1031.1 1031.0 0.0
20/03:30pm 15.8 7.7 1.2 37 6.4 S 33 46 18 25 1031.3 1031.2 0.0
20/03:18pm 15.6 7.6 0.6 36 6.5 S 32 50 17 27 1031.4 1031.3 0.0
20/03:00pm 15.9 8.0 0.9 36 6.5 S 32 46 17 25 1031.4 1031.3 0.0
20/02:30pm 15.8 7.7 0.8 36 6.5 SSE 33 43 18 23 1031.6 1031.5 0.0
20/02:00pm 16.0 8.1 1.0 36 6.5 SSE 32 44 17 24 1031.7 1031.6 0.0
20/01:30pm 15.8 7.8 0.4 35 6.7 SSE 32 44 17 24 1032.1 1032.0 0.0
20/01:17pm 15.4 8.0 -0.4 34 6.7 SSE 28 48 15 26 1032.3 1032.2 0.0
20/01:00pm 15.2 7.2 0.2 36 6.4 SSE 32 46 17 25 1032.5 1032.5 0.0
20/12:30pm 15.1 5.8 0.5 37 6.3 SSE 39 50 21 27 1032.7 1032.7 0.0
20/12:00pm 15.0 6.5 1.2 39 6.0 S 35 46 19 25 1032.9 1032.9 0.0
20/11:30am 14.7 6.6 0.9 39 6.0 S 33 46 18 25 1033.3 1033.3 0.0
20/11:00am 14.4 6.0 1.7 42 5.5 S 35 46 19 25 1033.6 1033.5 0.0
20/10:30am 13.9 6.9 2.2 45 5.2 SSE 28 46 15 25 1034.0 1033.9 0.0
20/10:10am 13.2 6.2 2.1 47 4.9 SSE 28 46 15 25 1034.4 1034.3 0.0
20/10:00am 13.4 7.4 3.2 50 4.5 SSE 24 41 13 22 1034.5 1034.4 0.0
20/09:30am 12.7 5.2 3.6 54 4.1 S 32 41 17 22 1034.6 1034.5 0.0
20/09:08am 11.6 4.0 3.1 56 3.8 SSE 32 50 17 27 1034.4 1034.3 0.0
20/09:00am 11.6 4.1 3.4 57 3.6 SSE 32 43 17 23 1034.5 1034.4 0.0
20/08:30am 10.8 4.1 3.4 60 3.3 SSE 28 44 15 24 1034.5 1034.4 0.0
20/08:21am 10.5 3.7 3.3 61 3.2 SSE 28 46 15 25 1034.5 1034.4 0.0
20/08:00am 9.9 2.7 3.2 63 2.9 S 30 43 16 23 1034.2 1034.1 0.0
20/07:30am 9.0 2.9 3.0 66 2.6 S 24 32 13 17 1034.0 1033.9 0.0
20/07:00am 8.9 1.6 2.5 64 2.7 S 30 41 16 22 1033.9 1033.8 0.0
20/06:30am 8.6 1.7 2.6 66 2.5 S 28 41 15 22 1033.6 1033.5 0.0
20/06:13am 8.7 1.8 2.5 65 2.6 S 28 46 15 25 1033.3 1033.3 0.0
20/06:00am 8.5 1.2 2.3 65 2.6 S 30 39 16 21 1033.2 1033.2 0.0
20/05:30am 8.5 1.6 2.5 66 2.5 S 28 37 15 20 1033.1 1033.1 0.0
20/05:00am 8.8 2.3 2.4 64 2.7 S 26 35 14 19 1033.0 1033.0 0.0
20/04:30am 8.7 1.3 2.1 63 2.8 S 30 43 16 23 1032.8 1032.8 0.0
20/04:00am 8.5 1.5 2.1 64 2.7 S 28 33 15 18 1032.7 1032.7 0.0
20/03:30am 8.9 2.3 1.8 61 3.0 S 26 37 14 20 1032.5 1032.5 0.0
20/03:00am 8.5 2.2 1.6 62 2.8 S 24 33 13 18 1032.7 1032.7 0.0
20/02:30am 8.2 2.3 1.6 63 2.7 S 22 33 12 18 1032.6 1032.6 0.0
20/02:00am 7.8 2.4 1.4 64 2.6 S 19 24 10 13 1032.9 1032.9 0.0
20/01:30am 8.1 2.8 1.7 64 2.6 SSE 19 28 10 15 1033.1 1033.1 0.0
20/01:00am 8.2 2.7 1.8 64 2.6 S 20 26 11 14 1033.1 1033.1 0.0
20/12:30am 8.7 3.4 1.8 62 2.9 S 19 32 10 17 1033.3 1033.3 0.0
20/12:00am 8.3 3.1 2.3 66 2.5 SSE 19 24 10 13 1033.3 1033.3 0.0
 
Date/Time
EST
Temp
°C
App
Temp
°C
Dew
Point
Rel
Hum
%
Delta-T
°C
Wind Press
QNH
hPa
Press
MSL
hPa
Rain
since 9 am
mm
Dir
 
Spd
km/h
Gust
km/h
Spd
kts
Gust
kts
19/11:30pm 8.5 3.6 2.3 65 2.6 S 17 24 9 13 1033.4 1033.4 0.0
19/11:00pm 8.4 4.3 2.2 65 2.6 SSW 13 17 7 9 1033.3 1033.3 0.0
19/10:30pm 8.4 4.7 2.2 65 2.6 SSW 11 19 6 10 1033.4 1033.4 0.0
19/10:00pm 8.8 5.1 2.6 65 2.6 S 11 20 6 11 1033.3 1033.3 0.0
19/09:30pm 8.9 4.9 2.7 65 2.6 S 13 19 7 10 1033.0 1033.0 0.0
19/09:00pm 8.7 4.3 2.9 67 2.5 S 15 20 8 11 1032.8 1032.8 0.0
19/08:30pm 8.8 4.1 3.0 67 2.5 S 17 22 9 12 1032.4 1032.4 0.0
19/08:00pm 9.2 4.1 3.0 65 2.6 S 19 24 10 13 1032.1 1032.0 0.0
19/07:30pm 9.5 4.4 2.8 63 2.9 S 19 30 10 16 1031.8 1031.7 0.0
19/07:00pm 9.1 4.8 3.5 68 2.4 SSW 15 20 8 11 1031.3 1031.2 0.0
19/06:30pm 9.8 4.7 2.9 62 3.0 SSW 19 28 10 15 1030.9 1030.8 0.0
19/06:00pm 10.6 4.7 1.9 55 3.7 S 22 30 12 16 1030.4 1030.3 0.0
19/05:30pm 11.1 4.9 1.9 53 3.9 S 24 32 13 17 1029.9 1029.8 0.0
19/05:00pm 11.8 4.8 1.7 50 4.3 S 28 43 15 23 1029.5 1029.4 0.0
19/04:30pm 12.0 5.5 2.7 53 4.1 SSE 26 37 14 20 1029.0 1028.9 0.0
19/04:00pm 11.6 5.8 4.6 62 3.2 S 24 35 13 19 1028.8 1028.7 0.0
19/03:40pm 10.1 2.9 5.7 74 2.0 S 33 52 18 28 1028.7 1028.6 0.0
19/03:30pm 11.8 3.8 3.8 58 3.6 S 35 52 19 28 1028.5 1028.4 0.0
19/03:26pm 13.1 5.5 2.9 50 4.5 S 32 52 17 28 1028.3 1028.2 0.0
19/03:00pm 12.1 5.2 4.6 60 3.4 SSE 30 41 16 22 1028.3 1028.2 0.0
19/02:41pm 12.2 5.7 4.7 60 3.4 SSW 28 46 15 25 1028.1 1028.0 0.0
19/02:30pm 12.5 6.7 4.2 57 3.8 SSW 24 33 13 18 1027.8 1027.7 0.0
19/02:00pm 13.1 6.4 3.5 52 4.3 S 28 41 15 22 1027.4 1027.3 0.0
19/01:30pm 13.2 8.0 5.4 59 3.7 S 22 32 12 17 1027.3 1027.2 0.0
19/01:00pm 12.9 6.4 4.6 57 3.8 S 28 41 15 22 1027.3 1027.2 0.0
19/12:30pm 13.7 5.8 4.6 54 4.2 S 35 48 19 26 1027.1 1027.0 0.0
19/12:04pm 12.1 4.7 3.9 57 3.7 S 32 50 17 27 1027.4 1027.3 0.0
19/12:00pm 12.1 4.5 4.1 58 3.6 SSE 33 50 18 27 1027.4 1027.3 0.0
19/11:45am 11.6 4.5 3.4 57 3.6 S 30 52 16 28 1027.3 1027.2 0.0
19/11:30am 13.3 6.1 5.2 58 3.8 S 32 44 17 24 1027.1 1027.0 0.0
19/11:00am 11.4 3.9 4.2 61 3.2 S 33 52 18 28 1027.2 1027.1 0.0
19/10:39am 10.7 4.2 4.6 66 2.8 S 28 46 15 25 1027.0 1026.9 0.0
19/10:30am 12.0 4.5 4.7 61 3.4 S 33 46 18 25 1026.7 1026.6 0.0
19/10:00am 11.7 5.0 5.6 66 2.8 S 30 48 16 26 1026.3 1026.1 0.0
19/09:30am 10.0 3.6 5.2 72 2.2 SSW 28 43 15 23 1025.8 1025.7 0.0
19/09:16am 9.9 3.5 5.3 73 2.1 SSW 28 46 15 25 1025.6 1025.5 0.0
19/09:00am 10.4 4.4 5.4 71 2.3 SSW 26 39 14 21 1025.2 1025.1 1.4
19/08:30am 9.9 4.4 5.9 76 1.9 S 24 32 13 17 1024.6 1024.5 1.4
19/08:00am 9.2 3.2 5.2 76 1.8 SSW 26 41 14 22 1024.2 1024.1 1.4
19/07:30am 8.8 4.1 5.2 78 1.6 SSW 19 28 10 15 1023.3 1023.2 1.4
19/07:00am 8.3 4.0 5.1 80 1.4 SSW 17 28 9 15 1022.8 1022.7 1.4
19/06:30am 8.2 3.8 5.0 80 1.4 SSW 17 24 9 13 1022.1 1022.0 1.4
19/06:00am 8.2 4.2 5.1 81 1.4 SSW 15 22 8 12 1021.4 1021.3 1.4
19/05:30am 8.6 4.3 5.4 80 1.5 SSW 17 28 9 15 1021.1 1021.0 1.4
19/05:00am 8.3 5.6 5.8 84 1.1 SSW 9 13 5 7 1020.7 1020.6 1.4
19/04:30am 8.2 6.0 6.0 86 1.0 SSW 7 9 4 5 1020.5 1020.4 1.4
19/04:00am 8.4 5.8 6.2 86 1.0 SW 9 13 5 7 1020.1 1019.9 1.4
19/03:30am 8.7 6.3 6.8 88 0.9 SW 9 11 5 6 1019.7 1019.5 1.4
19/03:00am 8.9 7.0 7.7 92 0.6 SW 7 9 4 5 1019.4 1019.2 1.4
19/02:30am 9.0 6.7 7.6 91 0.7 SW 9 13 5 7 1019.2 1019.0 1.4
19/02:00am 9.7 6.4 8.1 90 0.8 WSW 15 19 8 10 1019.2 1019.0 1.4
19/01:30am 9.8 6.9 8.1 89 0.8 SW 13 17 7 9 1018.8 1018.6 1.4
19/01:00am 10.0 7.5 8.3 89 0.8 SSW 11 13 6 7 1018.4 1018.3 1.4
19/12:30am 10.2 7.5 9.0 92 0.6 S 13 17 7 9 1018.0 1017.9 1.4
19/12:00am 10.0 6.6 9.1 94 0.4 S 17 20 9 11 1017.9 1017.8 1.0
 
Date/Time
EST
Temp
°C
App
Temp
°C
Dew
Point
Rel
Hum
%
Delta-T
°C
Wind Press
QNH
hPa
Press
MSL
hPa
Rain
since 9 am
mm
Dir
 
Spd
km/h
Gust
km/h
Spd
kts
Gust
kts
18/11:34pm 9.8 6.7 8.9 94 0.4 SSW 15 19 8 10 1017.8 1017.7 1.0
18/11:30pm 9.9 6.8 9.0 94 0.4 SSW 15 17 8 9 1017.8 1017.7 1.0
18/11:16pm 9.9 6.8 8.8 93 0.5 SSW 15 22 8 12 1017.8 1017.7 1.0
18/11:00pm 10.1 6.3 9.2 94 0.4 S 19 28 10 15 1017.6 1017.5 1.0
18/10:58pm 10.1 6.1 9.2 94 0.4 S 20 28 11 15 1017.7 1017.6 1.0
18/10:30pm 10.2 3.9 9.0 92 0.6 SSW 32 46 17 25 1017.8 1017.7 0.6
18/10:13pm 10.6 4.2 8.7 88 0.9 SSW 32 46 17 25 1017.3 1017.2 0.6
18/10:00pm 11.4 5.3 8.4 82 1.5 SSW 30 44 16 24 1017.0 1016.9 0.4
18/09:30pm 11.6 6.4 10.2 91 0.7 SSW 28 39 15 21 1016.4 1016.3 0.4
18/09:28pm 11.6 6.8 10.2 91 0.7 SSW 26 39 14 21 1016.4 1016.3 0.4
18/09:04pm 12.7 7.6 10.6 87 1.1 SSW 28 41 15 22 1016.0 1015.9 0.2
18/09:00pm 13.2 9.1 10.0 81 1.7 SW 22 41 12 22 1015.9 1015.8 0.2
18/08:30pm 14.7 12.6 9.9 73 2.5 NNW 11 13 6 7 1014.7 1014.6 0.2
18/08:00pm 14.5 12.9 10.3 76 2.2 NNW 9 11 5 6 1014.4 1014.3 0.2

Other Formats:

Comma delimited format used in spreadsheet applications
http://www.bom.gov.au/fwo/IDV60801/IDV60801.94874.axf

JavaScript Object Notation format (JSON) in row-major order
http://www.bom.gov.au/fwo/IDV60801/IDV60801.94874.json